PWSweather.com
Personal Weather Stations
Station Observations
KCOBLACK1
Chalet Park, Black Hawk, CO 80422

Chalet ParkBlack Hawk, CO 80422

Lat: 39.8294, Lon: -105.48

Elevation: 9370

Station Type: Vantage Pro2

http://www.oscaranddeb.com/weather

High Low Average
Temperature 25.1°F-3.8°C 16.2°F-8.8°C 19.1°F-7.2°C
Dew Point 17.7°F-7.9°C 0.0°F-17.8°C 7.6°F-13.6°C
Winds 30.0 mph 48.3 kmh Calm Calm 10.0 mph WSW16.1 kmh WSW
Wind Gusts 44.0 mph70.8 kmh 5.0 mph8.0 kmh 22.0 mph35.4 kmh
Humidity 85% 42% 60%
Pressure 30.12 in1020.0 mb 29.72 in1006.4 mb -
Precipitation 0.00 in0.0 mm - -
Hour Temp Dew Point Humidity Winds Wind Gusts Pressure Precip Precip Rate Daily Precip Total
12:00 AM 24.7°F-4.1°C 14.2°F-9.9°C 64% 6.0 mph NW9.7 kmh NW 23.0 mph37.0 kmh 29.73 in1006.8 mb 0.00 in0.0 mm 0.00 in/hr0.0 mm/hr 0.00 in0.0 mm
12:05 AM 24.7°F-4.1°C 14.6°F-9.7°C 65% 12.0 mph WSW19.3 kmh WSW 21.0 mph33.8 kmh 29.73 in1006.8 mb 0.00 in0.0 mm 0.00 in/hr0.0 mm/hr 0.00 in0.0 mm
12:12 AM 24.8°F-4.0°C 14.0°F-10.0°C 63% 20.0 mph NW32.2 kmh NW 27.0 mph43.5 kmh 29.73 in1006.8 mb 0.00 in0.0 mm 0.00 in/hr0.0 mm/hr 0.00 in0.0 mm
12:15 AM 25.1°F-3.8°C 13.1°F-10.5°C 60% 10.0 mph NW16.1 kmh NW 37.0 mph59.5 kmh 29.73 in1006.8 mb 0.00 in0.0 mm 0.00 in/hr0.0 mm/hr 0.00 in0.0 mm
12:20 AM 24.8°F-4.0°C 14.3°F-9.8°C 64% 22.0 mph WNW35.4 kmh WNW 23.0 mph37.0 kmh 29.73 in1006.8 mb 0.00 in0.0 mm 0.00 in/hr0.0 mm/hr 0.00 in0.0 mm
12:25 AM 24.2°F-4.3°C 15.8°F-9.0°C 70% 1.0 mph WSW1.6 kmh WSW 26.0 mph41.8 kmh 29.73 in1006.8 mb 0.00 in0.0 mm 0.00 in/hr0.0 mm/hr 0.00 in0.0 mm
12:30 AM 23.6°F-4.7°C 16.8°F-8.4°C 75% 9.0 mph WSW14.5 kmh WSW 21.0 mph33.8 kmh 29.72 in1006.4 mb 0.00 in0.0 mm 0.00 in/hr0.0 mm/hr 0.00 in0.0 mm
12:35 AM 23.5°F-4.7°C 16.4°F-8.7°C 74% 12.0 mph WNW19.3 kmh WNW 20.0 mph32.2 kmh 29.72 in1006.4 mb 0.00 in0.0 mm 0.00 in/hr0.0 mm/hr 0.00 in0.0 mm
12:40 AM 23.3°F-4.8°C 16.5°F-8.6°C 75% 12.0 mph WSW19.3 kmh WSW 24.0 mph38.6 kmh 29.72 in1006.4 mb 0.00 in0.0 mm 0.00 in/hr0.0 mm/hr 0.00 in0.0 mm
12:45 AM 23.3°F-4.8°C 16.2°F-8.8°C 74% 6.0 mph W9.7 kmh W 23.0 mph37.0 kmh 29.72 in1006.4 mb 0.00 in0.0 mm 0.00 in/hr0.0 mm/hr 0.00 in0.0 mm
12:50 AM 23.6°F-4.7°C 16.2°F-8.8°C 73% 5.0 mph NW8.0 kmh NW 18.0 mph29.0 kmh 29.72 in1006.4 mb 0.00 in0.0 mm 0.00 in/hr0.0 mm/hr 0.00 in0.0 mm
12:55 AM 23.6°F-4.7°C 16.5°F-8.6°C 74% 18.0 mph NNW29.0 kmh NNW 18.0 mph29.0 kmh 29.72 in1006.4 mb 0.00 in0.0 mm 0.00 in/hr0.0 mm/hr 0.00 in0.0 mm
01:00 AM 23.5°F-4.7°C 16.7°F-8.5°C 75% 12.0 mph WSW19.3 kmh WSW 23.0 mph37.0 kmh 29.73 in1006.8 mb 0.00 in0.0 mm 0.00 in/hr0.0 mm/hr 0.00 in0.0 mm
01:05 AM 23.0°F-5.0°C 17.7°F-7.9°C 80% 2.0 mph W3.2 kmh W 20.0 mph32.2 kmh 29.73 in1006.8 mb 0.00 in0.0 mm 0.00 in/hr0.0 mm/hr 0.00 in0.0 mm
01:10 AM 22.7°F-5.2°C 17.4°F-8.1°C 80% 5.0 mph W8.0 kmh W 18.0 mph29.0 kmh 29.73 in1006.8 mb 0.00 in0.0 mm 0.00 in/hr0.0 mm/hr 0.00 in0.0 mm
01:15 AM 23.0°F-5.0°C 16.8°F-8.4°C 77% 7.0 mph NW11.3 kmh NW 17.0 mph27.4 kmh 29.73 in1006.8 mb 0.00 in0.0 mm 0.00 in/hr0.0 mm/hr 0.00 in0.0 mm
01:20 AM 23.2°F-4.9°C 16.1°F-8.8°C 74% 9.0 mph WSW14.5 kmh WSW 20.0 mph32.2 kmh 29.73 in1006.8 mb 0.00 in0.0 mm 0.00 in/hr0.0 mm/hr 0.00 in0.0 mm
01:25 AM 23.5°F-4.7°C 14.1°F-9.9°C 67% 5.0 mph W8.0 kmh W 15.0 mph24.1 kmh 29.73 in1006.8 mb 0.00 in0.0 mm 0.00 in/hr0.0 mm/hr 0.00 in0.0 mm
01:30 AM 24.2°F-4.3°C 12.7°F-10.7°C 61% 3.0 mph NW4.8 kmh NW 23.0 mph37.0 kmh 29.72 in1006.4 mb 0.00 in0.0 mm 0.00 in/hr0.0 mm/hr 0.00 in0.0 mm
01:35 AM 24.5°F-4.2°C 12.6°F-10.8°C 60% 8.0 mph NW12.9 kmh NW 20.0 mph32.2 kmh 29.72 in1006.4 mb 0.00 in0.0 mm 0.00 in/hr0.0 mm/hr 0.00 in0.0 mm
01:40 AM 24.5°F-4.2°C 13.0°F-10.6°C 61% 2.0 mph NW3.2 kmh NW 20.0 mph32.2 kmh 29.72 in1006.4 mb 0.00 in0.0 mm 0.00 in/hr0.0 mm/hr 0.00 in0.0 mm
01:45 AM 24.4°F-4.2°C 13.2°F-10.4°C 62% 5.0 mph W8.0 kmh W 15.0 mph24.1 kmh 29.72 in1006.4 mb 0.00 in0.0 mm 0.00 in/hr0.0 mm/hr 0.00 in0.0 mm
01:50 AM 24.4°F-4.2°C 13.9°F-10.1°C 64% 12.0 mph WSW19.3 kmh WSW 22.0 mph35.4 kmh 29.72 in1006.4 mb 0.00 in0.0 mm 0.00 in/hr0.0 mm/hr 0.00 in0.0 mm
01:55 AM 23.6°F-4.7°C 16.2°F-8.8°C 73% 14.0 mph W22.5 kmh W 25.0 mph40.2 kmh 29.72 in1006.4 mb 0.00 in0.0 mm 0.00 in/hr0.0 mm/hr 0.00 in0.0 mm
02:00 AM 22.4°F-5.3°C 17.1°F-8.3°C 80% 9.0 mph WSW14.5 kmh WSW 23.0 mph37.0 kmh 29.74 in1007.1 mb 0.00 in0.0 mm 0.00 in/hr0.0 mm/hr 0.00 in0.0 mm
02:05 AM 21.8°F-5.7°C 17.4°F-8.1°C 83% 8.0 mph SW12.9 kmh SW 15.0 mph24.1 kmh 29.74 in1007.1 mb 0.00 in0.0 mm 0.00 in/hr0.0 mm/hr 0.00 in0.0 mm
02:10 AM 21.8°F-5.7°C 17.1°F-8.3°C 82% 5.0 mph NW8.0 kmh NW 14.0 mph22.5 kmh 29.74 in1007.1 mb 0.00 in0.0 mm 0.00 in/hr0.0 mm/hr 0.00 in0.0 mm
02:15 AM 21.9°F-5.6°C 16.1°F-8.8°C 78% 9.0 mph W14.5 kmh W 20.0 mph32.2 kmh 29.74 in1007.1 mb 0.00 in0.0 mm 0.00 in/hr0.0 mm/hr 0.00 in0.0 mm
02:20 AM 21.8°F-5.7°C 16.8°F-8.4°C 81% 4.0 mph WNW6.4 kmh WNW 24.0 mph38.6 kmh 29.74 in1007.1 mb 0.00 in0.0 mm 0.00 in/hr0.0 mm/hr 0.00 in0.0 mm
02:25 AM 21.4°F-5.9°C 16.4°F-8.7°C 81% 6.0 mph WSW9.7 kmh WSW 16.0 mph25.7 kmh 29.74 in1007.1 mb 0.00 in0.0 mm 0.00 in/hr0.0 mm/hr 0.00 in0.0 mm
02:30 AM 21.8°F-5.7°C 15.7°F-9.1°C 77% 4.0 mph WSW6.4 kmh WSW 16.0 mph25.7 kmh 29.73 in1006.8 mb 0.00 in0.0 mm 0.00 in/hr0.0 mm/hr 0.00 in0.0 mm
02:35 AM 21.9°F-5.6°C 15.5°F-9.2°C 76% 5.0 mph W8.0 kmh W 8.0 mph12.9 kmh 29.73 in1006.8 mb 0.00 in0.0 mm 0.00 in/hr0.0 mm/hr 0.00 in0.0 mm
02:40 AM 22.2°F-5.4°C 14.8°F-9.6°C 73% 13.0 mph NW20.9 kmh NW 16.0 mph25.7 kmh 29.73 in1006.8 mb 0.00 in0.0 mm 0.00 in/hr0.0 mm/hr 0.00 in0.0 mm
02:45 AM 22.2°F-5.4°C 14.5°F-9.7°C 72% 3.0 mph WNW4.8 kmh WNW 20.0 mph32.2 kmh 29.74 in1007.1 mb 0.00 in0.0 mm 0.00 in/hr0.0 mm/hr 0.00 in0.0 mm
02:50 AM 22.2°F-5.4°C 14.5°F-9.7°C 72% 5.0 mph NW8.0 kmh NW 14.0 mph22.5 kmh 29.74 in1007.1 mb 0.00 in0.0 mm 0.00 in/hr0.0 mm/hr 0.00 in0.0 mm
02:55 AM 22.1°F-5.5°C 15.1°F-9.4°C 74% 9.0 mph NNW14.5 kmh NNW 14.0 mph22.5 kmh 29.74 in1007.1 mb 0.00 in0.0 mm 0.00 in/hr0.0 mm/hr 0.00 in0.0 mm
03:00 AM 21.6°F-5.8°C 15.5°F-9.2°C 77% 13.0 mph W20.9 kmh W 18.0 mph29.0 kmh 29.77 in1008.1 mb 0.00 in0.0 mm 0.00 in/hr0.0 mm/hr 0.00 in0.0 mm
03:05 AM 21.1°F-6.1°C 16.2°F-8.8°C 81% 7.0 mph WNW11.3 kmh WNW 16.0 mph25.7 kmh 29.77 in1008.1 mb 0.00 in0.0 mm 0.00 in/hr0.0 mm/hr 0.00 in0.0 mm
03:10 AM 20.6°F-6.3°C 16.2°F-8.8°C 83% 7.0 mph SSW11.3 kmh SSW 13.0 mph20.9 kmh 29.77 in1008.1 mb 0.00 in0.0 mm 0.00 in/hr0.0 mm/hr 0.00 in0.0 mm
03:15 AM 20.6°F-6.3°C 16.2°F-8.8°C 83% 3.0 mph WSW4.8 kmh WSW 16.0 mph25.7 kmh 29.76 in1007.8 mb 0.00 in0.0 mm 0.00 in/hr0.0 mm/hr 0.00 in0.0 mm
03:20 AM 20.5°F-6.4°C 16.1°F-8.8°C 83% 5.0 mph NNW8.0 kmh NNW 11.0 mph17.7 kmh 29.76 in1007.8 mb 0.00 in0.0 mm 0.00 in/hr0.0 mm/hr 0.00 in0.0 mm
03:25 AM 20.5°F-6.4°C 16.1°F-8.8°C 83% 5.0 mph NW8.0 kmh NW 14.0 mph22.5 kmh 29.76 in1007.8 mb 0.00 in0.0 mm 0.00 in/hr0.0 mm/hr 0.00 in0.0 mm
03:30 AM 20.3°F-6.5°C 16.2°F-8.8°C 84% 3.0 mph NW4.8 kmh NW 8.0 mph12.9 kmh 29.75 in1007.5 mb 0.00 in0.0 mm 0.00 in/hr0.0 mm/hr 0.00 in0.0 mm
03:35 AM 20.2°F-6.6°C 16.4°F-8.7°C 85% 8.0 mph WNW12.9 kmh WNW 9.0 mph14.5 kmh 29.75 in1007.5 mb 0.00 in0.0 mm 0.00 in/hr0.0 mm/hr 0.00 in0.0 mm
03:40 AM 20.2°F-6.6°C 16.4°F-8.7°C 85% 7.0 mph NW11.3 kmh NW 12.0 mph19.3 kmh 29.75 in1007.5 mb 0.00 in0.0 mm 0.00 in/hr0.0 mm/hr 0.00 in0.0 mm
03:45 AM 20.0°F-6.7°C 15.9°F-8.9°C 84% 11.0 mph NW17.7 kmh NW 22.0 mph35.4 kmh 29.73 in1006.8 mb 0.00 in0.0 mm 0.00 in/hr0.0 mm/hr 0.00 in0.0 mm
03:50 AM 20.0°F-6.7°C 14.5°F-9.7°C 79% 12.0 mph W19.3 kmh W 23.0 mph37.0 kmh 29.73 in1006.8 mb 0.00 in0.0 mm 0.00 in/hr0.0 mm/hr 0.00 in0.0 mm
03:55 AM 20.2°F-6.6°C 13.5°F-10.3°C 75% 8.0 mph W12.9 kmh W 33.0 mph53.1 kmh 29.73 in1006.8 mb 0.00 in0.0 mm 0.00 in/hr0.0 mm/hr 0.00 in0.0 mm
04:00 AM 20.2°F-6.6°C 12.9°F-10.6°C 73% 18.0 mph WNW29.0 kmh WNW 29.0 mph46.7 kmh 29.74 in1007.1 mb 0.00 in0.0 mm 0.00 in/hr0.0 mm/hr 0.00 in0.0 mm
04:05 AM 20.5°F-6.4°C 11.6°F-11.3°C 68% 10.0 mph WSW16.1 kmh WSW 23.0 mph37.0 kmh 29.74 in1007.1 mb 0.00 in0.0 mm 0.00 in/hr0.0 mm/hr 0.00 in0.0 mm
04:10 AM 20.5°F-6.4°C 11.3°F-11.5°C 67% 9.0 mph NW14.5 kmh NW 24.0 mph38.6 kmh 29.74 in1007.1 mb 0.00 in0.0 mm 0.00 in/hr0.0 mm/hr 0.00 in0.0 mm
04:15 AM 20.5°F-6.4°C 11.3°F-11.5°C 67% 11.0 mph W17.7 kmh W 25.0 mph40.2 kmh 29.74 in1007.1 mb 0.00 in0.0 mm 0.00 in/hr0.0 mm/hr 0.00 in0.0 mm
04:20 AM 20.5°F-6.4°C 11.6°F-11.3°C 68% 16.0 mph NW25.7 kmh NW 25.0 mph40.2 kmh 29.74 in1007.1 mb 0.00 in0.0 mm 0.00 in/hr0.0 mm/hr 0.00 in0.0 mm
04:25 AM 20.2°F-6.6°C 11.6°F-11.3°C 69% 6.0 mph NW9.7 kmh NW 22.0 mph35.4 kmh 29.74 in1007.1 mb 0.00 in0.0 mm 0.00 in/hr0.0 mm/hr 0.00 in0.0 mm
04:30 AM 20.2°F-6.6°C 11.0°F-11.7°C 67% 7.0 mph W11.3 kmh W 21.0 mph33.8 kmh 29.73 in1006.8 mb 0.00 in0.0 mm 0.00 in/hr0.0 mm/hr 0.00 in0.0 mm
04:35 AM 20.2°F-6.6°C 11.0°F-11.7°C 67% 17.0 mph WSW27.4 kmh WSW 25.0 mph40.2 kmh 29.73 in1006.8 mb 0.00 in0.0 mm 0.00 in/hr0.0 mm/hr 0.00 in0.0 mm
04:45 AM 19.7°F-6.8°C 10.5°F-11.9°C 67% 9.0 mph WNW14.5 kmh WNW 26.0 mph41.8 kmh 29.74 in1007.1 mb 0.00 in0.0 mm 0.00 in/hr0.0 mm/hr 0.00 in0.0 mm
04:50 AM 19.9°F-6.7°C 9.7°F-12.4°C 64% 10.0 mph W16.1 kmh W 30.0 mph48.3 kmh 29.74 in1007.1 mb 0.00 in0.0 mm 0.00 in/hr0.0 mm/hr 0.00 in0.0 mm
04:55 AM 19.7°F-6.8°C 9.1°F-12.7°C 63% 7.0 mph NW11.3 kmh NW 23.0 mph37.0 kmh 29.74 in1007.1 mb 0.00 in0.0 mm 0.00 in/hr0.0 mm/hr 0.00 in0.0 mm
05:00 AM 19.4°F-7.0°C 8.8°F-12.9°C 63% 4.0 mph WSW6.4 kmh WSW 16.0 mph25.7 kmh 29.75 in1007.5 mb 0.00 in0.0 mm 0.00 in/hr0.0 mm/hr 0.00 in0.0 mm
05:05 AM 19.1°F-7.2°C 8.2°F-13.2°C 62% 18.0 mph NW29.0 kmh NW 19.0 mph30.6 kmh 29.75 in1007.5 mb 0.00 in0.0 mm 0.00 in/hr0.0 mm/hr 0.00 in0.0 mm
05:10 AM 19.1°F-7.2°C 8.2°F-13.2°C 62% 1.0 mph WSW1.6 kmh WSW 30.0 mph48.3 kmh 29.75 in1007.5 mb 0.00 in0.0 mm 0.00 in/hr0.0 mm/hr 0.00 in0.0 mm
05:15 AM 18.9°F-7.3°C 7.7°F-13.5°C 61% 23.0 mph W37.0 kmh W 23.0 mph37.0 kmh 29.76 in1007.8 mb 0.00 in0.0 mm 0.00 in/hr0.0 mm/hr 0.00 in0.0 mm
05:20 AM 18.9°F-7.3°C 6.9°F-13.9°C 59% 8.0 mph WNW12.9 kmh WNW 29.0 mph46.7 kmh 29.76 in1007.8 mb 0.00 in0.0 mm 0.00 in/hr0.0 mm/hr 0.00 in0.0 mm
05:25 AM 18.9°F-7.3°C 7.3°F-13.7°C 60% 15.0 mph W24.1 kmh W 30.0 mph48.3 kmh 29.76 in1007.8 mb 0.00 in0.0 mm 0.00 in/hr0.0 mm/hr 0.00 in0.0 mm
05:30 AM 18.6°F-7.4°C 7.7°F-13.5°C 62% 6.0 mph WSW9.7 kmh WSW 31.0 mph49.9 kmh 29.78 in1008.5 mb 0.00 in0.0 mm 0.00 in/hr0.0 mm/hr 0.00 in0.0 mm
05:35 AM 18.4°F-7.6°C 7.5°F-13.6°C 62% 7.0 mph W11.3 kmh W 27.0 mph43.5 kmh 29.78 in1008.5 mb 0.00 in0.0 mm 0.00 in/hr0.0 mm/hr 0.00 in0.0 mm
05:40 AM 18.4°F-7.6°C 7.5°F-13.6°C 62% 16.0 mph W25.7 kmh W 22.0 mph35.4 kmh 29.78 in1008.5 mb 0.00 in0.0 mm 0.00 in/hr0.0 mm/hr 0.00 in0.0 mm
05:45 AM 18.6°F-7.4°C 7.7°F-13.5°C 62% 23.0 mph WSW37.0 kmh WSW 23.0 mph37.0 kmh 29.78 in1008.5 mb 0.00 in0.0 mm 0.00 in/hr0.0 mm/hr 0.00 in0.0 mm
05:50 AM 18.4°F-7.6°C 7.5°F-13.6°C 62% 8.0 mph WSW12.9 kmh WSW 25.0 mph40.2 kmh 29.78 in1008.5 mb 0.00 in0.0 mm 0.00 in/hr0.0 mm/hr 0.00 in0.0 mm
05:55 AM 18.4°F-7.6°C 7.9°F-13.4°C 63% 5.0 mph SW8.0 kmh SW 18.0 mph29.0 kmh 29.78 in1008.5 mb 0.00 in0.0 mm 0.00 in/hr0.0 mm/hr 0.00 in0.0 mm
06:00 AM 18.3°F-7.6°C 8.1°F-13.3°C 64% 16.0 mph W25.7 kmh W 22.0 mph35.4 kmh 29.79 in1008.8 mb 0.00 in0.0 mm 0.00 in/hr0.0 mm/hr 0.00 in0.0 mm
06:05 AM 18.3°F-7.6°C 8.1°F-13.3°C 64% 16.0 mph WSW25.7 kmh WSW 22.0 mph35.4 kmh 29.79 in1008.8 mb 0.00 in0.0 mm 0.00 in/hr0.0 mm/hr 0.00 in0.0 mm
06:10 AM 18.3°F-7.6°C 8.1°F-13.3°C 64% 15.0 mph SW24.1 kmh SW 24.0 mph38.6 kmh 29.79 in1008.8 mb 0.00 in0.0 mm 0.00 in/hr0.0 mm/hr 0.00 in0.0 mm
06:15 AM 18.1°F-7.7°C 8.0°F-13.3°C 64% 15.0 mph WSW24.1 kmh WSW 35.0 mph56.3 kmh 29.79 in1008.8 mb 0.00 in0.0 mm 0.00 in/hr0.0 mm/hr 0.00 in0.0 mm
06:20 AM 18.3°F-7.6°C 7.8°F-13.4°C 63% 14.0 mph SW22.5 kmh SW 26.0 mph41.8 kmh 29.79 in1008.8 mb 0.00 in0.0 mm 0.00 in/hr0.0 mm/hr 0.00 in0.0 mm
06:25 AM 18.1°F-7.7°C 7.6°F-13.6°C 63% 22.0 mph W35.4 kmh W 31.0 mph49.9 kmh 29.79 in1008.8 mb 0.00 in0.0 mm 0.00 in/hr0.0 mm/hr 0.00 in0.0 mm
06:30 AM 18.1°F-7.7°C 7.6°F-13.6°C 63% 26.0 mph W41.8 kmh W 41.0 mph66.0 kmh 29.77 in1008.1 mb 0.00 in0.0 mm 0.00 in/hr0.0 mm/hr 0.00 in0.0 mm
06:40 AM 18.3°F-7.6°C 7.4°F-13.7°C 62% 13.0 mph SW20.9 kmh SW 40.0 mph64.4 kmh 29.77 in1008.1 mb 0.00 in0.0 mm 0.00 in/hr0.0 mm/hr 0.00 in0.0 mm
06:45 AM 18.1°F-7.7°C 7.3°F-13.7°C 62% 12.0 mph SW19.3 kmh SW 38.0 mph61.2 kmh 29.76 in1007.8 mb 0.00 in0.0 mm 0.00 in/hr0.0 mm/hr 0.00 in0.0 mm
06:50 AM 18.1°F-7.7°C 6.9°F-13.9°C 61% 13.0 mph W20.9 kmh W 32.0 mph51.5 kmh 29.76 in1007.8 mb 0.00 in0.0 mm 0.00 in/hr0.0 mm/hr 0.00 in0.0 mm
06:55 AM 18.1°F-7.7°C 6.9°F-13.9°C 61% 16.0 mph SSW25.7 kmh SSW 34.0 mph54.7 kmh 29.76 in1007.8 mb 0.00 in0.0 mm 0.00 in/hr0.0 mm/hr 0.00 in0.0 mm
07:00 AM 18.1°F-7.7°C 6.9°F-13.9°C 61% 20.0 mph SW32.2 kmh SW 28.0 mph45.1 kmh 29.76 in1007.8 mb 0.00 in0.0 mm 0.00 in/hr0.0 mm/hr 0.00 in0.0 mm
07:05 AM 18.1°F-7.7°C 6.5°F-14.2°C 60% 18.0 mph W29.0 kmh W 27.0 mph43.5 kmh 29.76 in1007.8 mb 0.00 in0.0 mm 0.00 in/hr0.0 mm/hr 0.00 in0.0 mm
07:10 AM 18.1°F-7.7°C 6.9°F-13.9°C 61% 17.0 mph SW27.4 kmh SW 29.0 mph46.7 kmh 29.76 in1007.8 mb 0.00 in0.0 mm 0.00 in/hr0.0 mm/hr 0.00 in0.0 mm
07:15 AM 18.0°F-7.8°C 7.2°F-13.8°C 62% 7.0 mph NW11.3 kmh NW 26.0 mph41.8 kmh 29.79 in1008.8 mb 0.00 in0.0 mm 0.00 in/hr0.0 mm/hr 0.00 in0.0 mm
07:25 AM 18.1°F-7.7°C 6.5°F-14.2°C 60% 8.0 mph N12.9 kmh N 29.0 mph46.7 kmh 29.79 in1008.8 mb 0.00 in0.0 mm 0.00 in/hr0.0 mm/hr 0.00 in0.0 mm
07:30 AM 18.0°F-7.8°C 6.8°F-14.0°C 61% 8.0 mph E12.9 kmh E 16.0 mph25.7 kmh 29.83 in1010.2 mb 0.00 in0.0 mm 0.00 in/hr0.0 mm/hr 0.00 in0.0 mm
07:35 AM 17.8°F-7.9°C 6.2°F-14.3°C 60% 4.0 mph E6.4 kmh E 18.0 mph29.0 kmh 29.83 in1010.2 mb 0.00 in0.0 mm 0.00 in/hr0.0 mm/hr 0.00 in0.0 mm
07:40 AM 17.7°F-7.9°C 7.2°F-13.8°C 63% 6.0 mph SE9.7 kmh SE 14.0 mph22.5 kmh 29.83 in1010.2 mb 0.00 in0.0 mm 0.00 in/hr0.0 mm/hr 0.00 in0.0 mm
07:45 AM 17.7°F-7.9°C 7.2°F-13.8°C 63% 2.0 mph SE3.2 kmh SE 10.0 mph16.1 kmh 29.85 in1010.8 mb 0.00 in0.0 mm 0.00 in/hr0.0 mm/hr 0.00 in0.0 mm
07:50 AM 17.5°F-8.1°C 8.1°F-13.3°C 66% 2.0 mph E3.2 kmh E 8.0 mph12.9 kmh 29.85 in1010.8 mb 0.00 in0.0 mm 0.00 in/hr0.0 mm/hr 0.00 in0.0 mm
07:55 AM 17.3°F-8.2°C 7.9°F-13.4°C 66% 2.0 mph E3.2 kmh E 5.0 mph8.0 kmh 29.85 in1010.8 mb 0.00 in0.0 mm 0.00 in/hr0.0 mm/hr 0.00 in0.0 mm
08:00 AM 17.2°F-8.2°C 8.1°F-13.3°C 67% 5.0 mph E8.0 kmh E 6.0 mph9.7 kmh 29.88 in1011.9 mb 0.00 in0.0 mm 0.00 in/hr0.0 mm/hr 0.00 in0.0 mm
08:05 AM 17.0°F-8.3°C 7.9°F-13.4°C 67% Calm Calm 6.0 mph9.7 kmh 29.88 in1011.9 mb 0.00 in0.0 mm 0.00 in/hr0.0 mm/hr 0.00 in0.0 mm
08:10 AM 16.9°F-8.4°C 6.8°F-14.0°C 64% 2.0 mph NE3.2 kmh NE 22.0 mph35.4 kmh 29.88 in1011.9 mb 0.00 in0.0 mm 0.00 in/hr0.0 mm/hr 0.00 in0.0 mm
08:15 AM 17.3°F-8.2°C 5.8°F-14.6°C 60% 6.0 mph WSW9.7 kmh WSW 14.0 mph22.5 kmh 29.88 in1011.9 mb 0.00 in0.0 mm 0.00 in/hr0.0 mm/hr 0.00 in0.0 mm
08:20 AM 17.5°F-8.1°C 6.0°F-14.4°C 60% 6.0 mph SSW9.7 kmh SSW 14.0 mph22.5 kmh 29.88 in1011.9 mb 0.00 in0.0 mm 0.00 in/hr0.0 mm/hr 0.00 in0.0 mm
08:25 AM 17.7°F-7.9°C 6.2°F-14.3°C 60% 1.0 mph WNW1.6 kmh WNW 13.0 mph20.9 kmh 29.88 in1011.9 mb 0.00 in0.0 mm 0.00 in/hr0.0 mm/hr 0.00 in0.0 mm
08:30 AM 17.8°F-7.9°C 6.2°F-14.3°C 60% 4.0 mph NW6.4 kmh NW 11.0 mph17.7 kmh 29.89 in1012.2 mb 0.00 in0.0 mm 0.00 in/hr0.0 mm/hr 0.00 in0.0 mm
08:35 AM 18.0°F-7.8°C 6.4°F-14.2°C 60% 4.0 mph NW6.4 kmh NW 14.0 mph22.5 kmh 29.89 in1012.2 mb 0.00 in0.0 mm 0.00 in/hr0.0 mm/hr 0.00 in0.0 mm
08:40 AM 18.1°F-7.7°C 6.2°F-14.3°C 59% 3.0 mph NW4.8 kmh NW 11.0 mph17.7 kmh 29.89 in1012.2 mb 0.00 in0.0 mm 0.00 in/hr0.0 mm/hr 0.00 in0.0 mm
08:45 AM 18.1°F-7.7°C 6.2°F-14.3°C 59% 2.0 mph NW3.2 kmh NW 8.0 mph12.9 kmh 29.90 in1012.5 mb 0.00 in0.0 mm 0.00 in/hr0.0 mm/hr 0.00 in0.0 mm
08:50 AM 18.1°F-7.7°C 5.8°F-14.6°C 58% 8.0 mph NW12.9 kmh NW 14.0 mph22.5 kmh 29.90 in1012.5 mb 0.00 in0.0 mm 0.00 in/hr0.0 mm/hr 0.00 in0.0 mm
08:55 AM 18.0°F-7.8°C 6.4°F-14.2°C 60% 6.0 mph WNW9.7 kmh WNW 12.0 mph19.3 kmh 29.90 in1012.5 mb 0.00 in0.0 mm 0.00 in/hr0.0 mm/hr 0.00 in0.0 mm
09:00 AM 18.1°F-7.7°C 6.5°F-14.2°C 60% 11.0 mph 17.7 kmh 12.0 mph19.3 kmh 29.91 in1012.9 mb 0.00 in0.0 mm 0.00 in/hr0.0 mm/hr 0.00 in0.0 mm
09:05 AM 18.0°F-7.8°C 7.5°F-13.6°C 63% 4.0 mph WNW6.4 kmh WNW 20.0 mph32.2 kmh 29.91 in1012.9 mb 0.00 in0.0 mm 0.00 in/hr0.0 mm/hr 0.00 in0.0 mm
09:10 AM 17.7°F-7.9°C 7.6°F-13.6°C 64% 8.0 mph WNW12.9 kmh WNW 10.0 mph16.1 kmh 29.91 in1012.9 mb 0.00 in0.0 mm 0.00 in/hr0.0 mm/hr 0.00 in0.0 mm
09:15 AM 17.3°F-8.2°C 8.5°F-13.1°C 68% 3.0 mph WNW4.8 kmh WNW 13.0 mph20.9 kmh 29.93 in1013.5 mb 0.00 in0.0 mm 0.00 in/hr0.0 mm/hr 0.00 in0.0 mm
09:20 AM 17.0°F-8.3°C 8.9°F-12.8°C 70% 2.0 mph WSW3.2 kmh WSW 12.0 mph19.3 kmh 29.93 in1013.5 mb 0.00 in0.0 mm 0.00 in/hr0.0 mm/hr 0.00 in0.0 mm
09:25 AM 17.2°F-8.2°C 8.8°F-12.9°C 69% 4.0 mph NW6.4 kmh NW 13.0 mph20.9 kmh 29.93 in1013.5 mb 0.00 in0.0 mm 0.00 in/hr0.0 mm/hr 0.00 in0.0 mm
09:30 AM 17.2°F-8.2°C 8.1°F-13.3°C 67% 4.0 mph WNW6.4 kmh WNW 22.0 mph35.4 kmh 29.93 in1013.5 mb 0.00 in0.0 mm 0.00 in/hr0.0 mm/hr 0.00 in0.0 mm
09:35 AM 17.2°F-8.2°C 8.1°F-13.3°C 67% 3.0 mph WSW4.8 kmh WSW 17.0 mph27.4 kmh 29.93 in1013.5 mb 0.00 in0.0 mm 0.00 in/hr0.0 mm/hr 0.00 in0.0 mm
09:40 AM 16.7°F-8.5°C 7.3°F-13.7°C 66% 13.0 mph NW20.9 kmh NW 16.0 mph25.7 kmh 29.93 in1013.5 mb 0.00 in0.0 mm 0.00 in/hr0.0 mm/hr 0.00 in0.0 mm
09:45 AM 16.4°F-8.7°C 8.0°F-13.3°C 69% 3.0 mph WSW4.8 kmh WSW 17.0 mph27.4 kmh 29.94 in1013.9 mb 0.00 in0.0 mm 0.00 in/hr0.0 mm/hr 0.00 in0.0 mm
09:50 AM 16.4°F-8.7°C 8.0°F-13.3°C 69% 10.0 mph NW16.1 kmh NW 11.0 mph17.7 kmh 29.94 in1013.9 mb 0.00 in0.0 mm 0.00 in/hr0.0 mm/hr 0.00 in0.0 mm
09:55 AM 16.5°F-8.6°C 5.7°F-14.6°C 62% 10.0 mph WNW16.1 kmh WNW 17.0 mph27.4 kmh 29.94 in1013.9 mb 0.00 in0.0 mm 0.00 in/hr0.0 mm/hr 0.00 in0.0 mm
10:00 AM 16.5°F-8.6°C 5.4°F-14.8°C 61% 1.0 mph NW1.6 kmh NW 25.0 mph40.2 kmh 29.96 in1014.6 mb 0.00 in0.0 mm 0.00 in/hr0.0 mm/hr 0.00 in0.0 mm
10:05 AM 16.4°F-8.7°C 5.6°F-14.7°C 62% 3.0 mph SW4.8 kmh SW 16.0 mph25.7 kmh 29.96 in1014.6 mb 0.00 in0.0 mm 0.00 in/hr0.0 mm/hr 0.00 in0.0 mm
10:10 AM 16.2°F-8.8°C 5.1°F-14.9°C 61% 8.0 mph W12.9 kmh W 20.0 mph32.2 kmh 29.96 in1014.6 mb 0.00 in0.0 mm 0.00 in/hr0.0 mm/hr 0.00 in0.0 mm
10:15 AM 16.5°F-8.6°C 3.5°F-15.8°C 56% 7.0 mph WNW11.3 kmh WNW 27.0 mph43.5 kmh 29.97 in1014.9 mb 0.00 in0.0 mm 0.00 in/hr0.0 mm/hr 0.00 in0.0 mm
10:20 AM 16.9°F-8.4°C 3.5°F-15.8°C 55% 14.0 mph W22.5 kmh W 20.0 mph32.2 kmh 29.97 in1014.9 mb 0.00 in0.0 mm 0.00 in/hr0.0 mm/hr 0.00 in0.0 mm
10:25 AM 17.0°F-8.3°C 3.6°F-15.8°C 55% 10.0 mph NW16.1 kmh NW 20.0 mph32.2 kmh 29.97 in1014.9 mb 0.00 in0.0 mm 0.00 in/hr0.0 mm/hr 0.00 in0.0 mm
10:30 AM 16.9°F-8.4°C 4.7°F-15.2°C 58% 14.0 mph NW22.5 kmh NW 32.0 mph51.5 kmh 29.98 in1015.2 mb 0.00 in0.0 mm 0.00 in/hr0.0 mm/hr 0.00 in0.0 mm
10:35 AM 16.5°F-8.6°C 3.9°F-15.6°C 57% 23.0 mph NW37.0 kmh NW 24.0 mph38.6 kmh 29.98 in1015.2 mb 0.00 in0.0 mm 0.00 in/hr0.0 mm/hr 0.00 in0.0 mm
10:40 AM 16.5°F-8.6°C 3.9°F-15.6°C 57% 10.0 mph W16.1 kmh W 32.0 mph51.5 kmh 29.98 in1015.2 mb 0.00 in0.0 mm 0.00 in/hr0.0 mm/hr 0.00 in0.0 mm
10:45 AM 17.0°F-8.3°C 3.6°F-15.8°C 55% 12.0 mph NW19.3 kmh NW 24.0 mph38.6 kmh 29.99 in1015.6 mb 0.00 in0.0 mm 0.00 in/hr0.0 mm/hr 0.00 in0.0 mm
10:50 AM 16.9°F-8.4°C 3.1°F-16.1°C 54% 21.0 mph WNW33.8 kmh WNW 26.0 mph41.8 kmh 29.99 in1015.6 mb 0.00 in0.0 mm 0.00 in/hr0.0 mm/hr 0.00 in0.0 mm
10:55 AM 17.2°F-8.2°C 2.2°F-16.6°C 51% 8.0 mph NW12.9 kmh NW 31.0 mph49.9 kmh 29.99 in1015.6 mb 0.00 in0.0 mm 0.00 in/hr0.0 mm/hr 0.00 in0.0 mm
11:00 AM 17.3°F-8.2°C 1.8°F-16.8°C 50% 2.0 mph WNW3.2 kmh WNW 24.0 mph38.6 kmh 29.98 in1015.2 mb 0.00 in0.0 mm 0.00 in/hr0.0 mm/hr 0.00 in0.0 mm
11:05 AM 18.3°F-7.6°C 1.9°F-16.7°C 48% 4.0 mph W6.4 kmh W 20.0 mph32.2 kmh 29.98 in1015.2 mb 0.00 in0.0 mm 0.00 in/hr0.0 mm/hr 0.00 in0.0 mm
11:10 AM 18.4°F-7.6°C 1.5°F-16.9°C 47% 13.0 mph SW20.9 kmh SW 26.0 mph41.8 kmh 29.98 in1015.2 mb 0.00 in0.0 mm 0.00 in/hr0.0 mm/hr 0.00 in0.0 mm
11:15 AM 17.8°F-7.9°C 4.0°F-15.6°C 54% 15.0 mph WNW24.1 kmh WNW 29.0 mph46.7 kmh 29.97 in1014.9 mb 0.00 in0.0 mm 0.00 in/hr0.0 mm/hr 0.00 in0.0 mm
11:20 AM 17.8°F-7.9°C 5.5°F-14.7°C 58% 8.0 mph WSW12.9 kmh WSW 26.0 mph41.8 kmh 29.97 in1014.9 mb 0.00 in0.0 mm 0.00 in/hr0.0 mm/hr 0.00 in0.0 mm
11:25 AM 17.8°F-7.9°C 3.1°F-16.1°C 52% 17.0 mph NW27.4 kmh NW 28.0 mph45.1 kmh 29.97 in1014.9 mb 0.00 in0.0 mm 0.00 in/hr0.0 mm/hr 0.00 in0.0 mm
11:30 AM 18.4°F-7.6°C 3.7°F-15.7°C 52% 10.0 mph SW16.1 kmh SW 17.0 mph27.4 kmh 29.97 in1014.9 mb 0.00 in0.0 mm 0.00 in/hr0.0 mm/hr 0.00 in0.0 mm
11:35 AM 18.1°F-7.7°C 3.0°F-16.1°C 51% 8.0 mph W12.9 kmh W 26.0 mph41.8 kmh 29.97 in1014.9 mb 0.00 in0.0 mm 0.00 in/hr0.0 mm/hr 0.00 in0.0 mm
11:40 AM 18.1°F-7.7°C 2.6°F-16.3°C 50% 12.0 mph WSW19.3 kmh WSW 22.0 mph35.4 kmh 29.97 in1014.9 mb 0.00 in0.0 mm 0.00 in/hr0.0 mm/hr 0.00 in0.0 mm
11:45 AM 18.3°F-7.6°C 2.8°F-16.2°C 50% 19.0 mph W30.6 kmh W 32.0 mph51.5 kmh 29.97 in1014.9 mb 0.00 in0.0 mm 0.00 in/hr0.0 mm/hr 0.00 in0.0 mm
11:50 AM 17.8°F-7.9°C 1.4°F-17.0°C 48% 8.0 mph WNW12.9 kmh WNW 27.0 mph43.5 kmh 29.97 in1014.9 mb 0.00 in0.0 mm 0.00 in/hr0.0 mm/hr 0.00 in0.0 mm
11:55 AM 18.4°F-7.6°C 2.0°F-16.7°C 48% 7.0 mph W11.3 kmh W 21.0 mph33.8 kmh 29.97 in1014.9 mb 0.00 in0.0 mm 0.00 in/hr0.0 mm/hr 0.00 in0.0 mm
12:00 PM 18.8°F-7.3°C 2.8°F-16.2°C 49% 18.0 mph SW29.0 kmh SW 21.0 mph33.8 kmh 29.98 in1015.2 mb 0.00 in0.0 mm 0.00 in/hr0.0 mm/hr 0.00 in0.0 mm
12:05 PM 19.1°F-7.2°C 1.7°F-16.8°C 46% 5.0 mph SW8.0 kmh SW 18.0 mph29.0 kmh 29.98 in1015.2 mb 0.00 in0.0 mm 0.00 in/hr0.0 mm/hr 0.00 in0.0 mm
12:10 PM 19.2°F-7.1°C 1.8°F-16.8°C 46% 6.0 mph WNW9.7 kmh WNW 20.0 mph32.2 kmh 29.98 in1015.2 mb 0.00 in0.0 mm 0.00 in/hr0.0 mm/hr 0.00 in0.0 mm
12:15 PM 19.4°F-7.0°C 2.4°F-16.4°C 47% 1.0 mph WSW1.6 kmh WSW 16.0 mph25.7 kmh 29.99 in1015.6 mb 0.00 in0.0 mm 0.00 in/hr0.0 mm/hr 0.00 in0.0 mm
12:20 PM 19.2°F-7.1°C 2.3°F-16.5°C 47% 20.0 mph 32.2 kmh 42.0 mph67.6 kmh 29.99 in1015.6 mb 0.00 in0.0 mm 0.00 in/hr0.0 mm/hr 0.00 in0.0 mm
12:25 PM 17.5°F-8.1°C 2.4°F-16.4°C 51% 15.0 mph WNW24.1 kmh WNW 42.0 mph67.6 kmh 29.99 in1015.6 mb 0.00 in0.0 mm 0.00 in/hr0.0 mm/hr 0.00 in0.0 mm
12:30 PM 17.5°F-8.1°C 2.9°F-16.2°C 52% 17.0 mph NW27.4 kmh NW 20.0 mph32.2 kmh 30.01 in1016.3 mb 0.00 in0.0 mm 0.00 in/hr0.0 mm/hr 0.00 in0.0 mm
12:35 PM 17.3°F-8.2°C 2.3°F-16.5°C 51% 11.0 mph NW17.7 kmh NW 24.0 mph38.6 kmh 30.01 in1016.3 mb 0.00 in0.0 mm 0.00 in/hr0.0 mm/hr 0.00 in0.0 mm
12:40 PM 17.2°F-8.2°C 1.7°F-16.8°C 50% 17.0 mph NW27.4 kmh NW 28.0 mph45.1 kmh 30.01 in1016.3 mb 0.00 in0.0 mm 0.00 in/hr0.0 mm/hr 0.00 in0.0 mm
12:45 PM 17.3°F-8.2°C 1.8°F-16.8°C 50% 18.0 mph NW29.0 kmh NW 37.0 mph59.5 kmh 30.00 in1015.9 mb 0.00 in0.0 mm 0.00 in/hr0.0 mm/hr 0.00 in0.0 mm
12:50 PM 17.3°F-8.2°C 1.0°F-17.2°C 48% 12.0 mph WSW19.3 kmh WSW 25.0 mph40.2 kmh 30.00 in1015.9 mb 0.00 in0.0 mm 0.00 in/hr0.0 mm/hr 0.00 in0.0 mm
12:55 PM 18.1°F-7.7°C 1.3°F-17.1°C 47% 14.0 mph NNE22.5 kmh NNE 24.0 mph38.6 kmh 30.00 in1015.9 mb 0.00 in0.0 mm 0.00 in/hr0.0 mm/hr 0.00 in0.0 mm
01:00 PM 18.1°F-7.7°C 1.3°F-17.1°C 47% 6.0 mph W9.7 kmh W 26.0 mph41.8 kmh 30.01 in1016.3 mb 0.00 in0.0 mm 0.00 in/hr0.0 mm/hr 0.00 in0.0 mm
01:05 PM 17.7°F-7.9°C 0.9°F-17.3°C 47% 18.0 mph W29.0 kmh W 33.0 mph53.1 kmh 30.01 in1016.3 mb 0.00 in0.0 mm 0.00 in/hr0.0 mm/hr 0.00 in0.0 mm
01:10 PM 17.8°F-7.9°C 1.0°F-17.2°C 47% 14.0 mph W22.5 kmh W 36.0 mph57.9 kmh 30.01 in1016.3 mb 0.00 in0.0 mm 0.00 in/hr0.0 mm/hr 0.00 in0.0 mm
01:15 PM 17.7°F-7.9°C 0.0°F-17.8°C 45% 13.0 mph N20.9 kmh N 31.0 mph49.9 kmh 30.00 in1015.9 mb 0.00 in0.0 mm 0.00 in/hr0.0 mm/hr 0.00 in0.0 mm
01:20 PM 17.5°F-8.1°C -5537.2°C 45% 27.0 mph WNW43.5 kmh WNW 38.0 mph61.2 kmh 30.00 in1015.9 mb 0.00 in0.0 mm 0.00 in/hr0.0 mm/hr 0.00 in0.0 mm
01:25 PM 17.3°F-8.2°C 0.1°F-17.7°C 46% 30.0 mph NW48.3 kmh NW 36.0 mph57.9 kmh 30.00 in1015.9 mb 0.00 in0.0 mm 0.00 in/hr0.0 mm/hr 0.00 in0.0 mm
01:30 PM 17.5°F-8.1°C 1.6°F-16.9°C 49% 14.0 mph NNW22.5 kmh NNW 35.0 mph56.3 kmh 30.01 in1016.3 mb 0.00 in0.0 mm 0.00 in/hr0.0 mm/hr 0.00 in0.0 mm
01:35 PM 18.1°F-7.7°C 1.7°F-16.8°C 48% 19.0 mph NW30.6 kmh NW 23.0 mph37.0 kmh 30.01 in1016.3 mb 0.00 in0.0 mm 0.00 in/hr0.0 mm/hr 0.00 in0.0 mm
01:40 PM 18.0°F-7.8°C 1.2°F-17.1°C 47% 11.0 mph NW17.7 kmh NW 32.0 mph51.5 kmh 30.01 in1016.3 mb 0.00 in0.0 mm 0.00 in/hr0.0 mm/hr 0.00 in0.0 mm
01:45 PM 18.0°F-7.8°C 2.1°F-16.6°C 49% 8.0 mph WNW12.9 kmh WNW 26.0 mph41.8 kmh 30.01 in1016.3 mb 0.00 in0.0 mm 0.00 in/hr0.0 mm/hr 0.00 in0.0 mm
01:50 PM 17.3°F-8.2°C 2.3°F-16.5°C 51% 23.0 mph NW37.0 kmh NW 35.0 mph56.3 kmh 30.01 in1016.3 mb 0.00 in0.0 mm 0.00 in/hr0.0 mm/hr 0.00 in0.0 mm
01:55 PM 17.2°F-8.2°C 2.6°F-16.3°C 52% 20.0 mph NW32.2 kmh NW 44.0 mph70.8 kmh 30.01 in1016.3 mb 0.00 in0.0 mm 0.00 in/hr0.0 mm/hr 0.00 in0.0 mm
02:00 PM 17.0°F-8.3°C 2.8°F-16.2°C 53% 16.0 mph NNW25.7 kmh NNW 28.0 mph45.1 kmh 30.02 in1016.6 mb 0.00 in0.0 mm 0.00 in/hr0.0 mm/hr 0.00 in0.0 mm
02:05 PM 17.3°F-8.2°C 1.8°F-16.8°C 50% 18.0 mph NW29.0 kmh NW 31.0 mph49.9 kmh 30.02 in1016.6 mb 0.00 in0.0 mm 0.00 in/hr0.0 mm/hr 0.00 in0.0 mm
02:10 PM 17.3°F-8.2°C 1.4°F-17.0°C 49% 19.0 mph NNW30.6 kmh NNW 33.0 mph53.1 kmh 30.02 in1016.6 mb 0.00 in0.0 mm 0.00 in/hr0.0 mm/hr 0.00 in0.0 mm
02:15 PM 17.3°F-8.2°C 2.7°F-16.3°C 52% 16.0 mph WNW25.7 kmh WNW 35.0 mph56.3 kmh 30.03 in1016.9 mb 0.00 in0.0 mm 0.00 in/hr0.0 mm/hr 0.00 in0.0 mm
02:20 PM 17.7°F-7.9°C 2.2°F-16.6°C 50% 10.0 mph NNW16.1 kmh NNW 24.0 mph38.6 kmh 30.03 in1016.9 mb 0.00 in0.0 mm 0.00 in/hr0.0 mm/hr 0.00 in0.0 mm
02:25 PM 18.4°F-7.6°C 2.4°F-16.4°C 49% 3.0 mph NW4.8 kmh NW 16.0 mph25.7 kmh 30.03 in1016.9 mb 0.00 in0.0 mm 0.00 in/hr0.0 mm/hr 0.00 in0.0 mm
02:30 PM 19.2°F-7.1°C 1.3°F-17.1°C 45% 7.0 mph N11.3 kmh N 22.0 mph35.4 kmh 30.04 in1017.3 mb 0.00 in0.0 mm 0.00 in/hr0.0 mm/hr 0.00 in0.0 mm
02:35 PM 19.7°F-6.8°C 1.3°F-17.1°C 44% 18.0 mph NW29.0 kmh NW 30.0 mph48.3 kmh 30.04 in1017.3 mb 0.00 in0.0 mm 0.00 in/hr0.0 mm/hr 0.00 in0.0 mm
02:40 PM 19.5°F-6.9°C 1.1°F-17.2°C 44% 16.0 mph N25.7 kmh N 21.0 mph33.8 kmh 30.04 in1017.3 mb 0.00 in0.0 mm 0.00 in/hr0.0 mm/hr 0.00 in0.0 mm
02:45 PM 19.5°F-6.9°C 1.6°F-16.9°C 45% 6.0 mph N9.7 kmh N 22.0 mph35.4 kmh 30.05 in1017.6 mb 0.00 in0.0 mm 0.00 in/hr0.0 mm/hr 0.00 in0.0 mm
02:50 PM 20.2°F-6.6°C 1.8°F-16.8°C 44% 13.0 mph W20.9 kmh W 20.0 mph32.2 kmh 30.05 in1017.6 mb 0.00 in0.0 mm 0.00 in/hr0.0 mm/hr 0.00 in0.0 mm
02:55 PM 19.2°F-7.1°C 1.8°F-16.8°C 46% 4.0 mph WNW6.4 kmh WNW 19.0 mph30.6 kmh 30.05 in1017.6 mb 0.00 in0.0 mm 0.00 in/hr0.0 mm/hr 0.00 in0.0 mm
03:00 PM 19.2°F-7.1°C 3.2°F-16.0°C 49% 3.0 mph SE4.8 kmh SE 14.0 mph22.5 kmh 30.07 in1018.3 mb 0.00 in0.0 mm 0.00 in/hr0.0 mm/hr 0.00 in0.0 mm
03:05 PM 18.6°F-7.4°C 4.3°F-15.4°C 53% 4.0 mph NW6.4 kmh NW 21.0 mph33.8 kmh 30.07 in1018.3 mb 0.00 in0.0 mm 0.00 in/hr0.0 mm/hr 0.00 in0.0 mm
03:10 PM 18.9°F-7.3°C 1.1°F-17.2°C 45% 15.0 mph NNW24.1 kmh NNW 16.0 mph25.7 kmh 30.07 in1018.3 mb 0.00 in0.0 mm 0.00 in/hr0.0 mm/hr 0.00 in0.0 mm
03:15 PM 19.4°F-7.0°C 0.5°F-17.5°C 43% 3.0 mph NW4.8 kmh NW 14.0 mph22.5 kmh 30.08 in1018.6 mb 0.00 in0.0 mm 0.00 in/hr0.0 mm/hr 0.00 in0.0 mm
03:20 PM 19.2°F-7.1°C 0.9°F-17.3°C 44% 13.0 mph NNW20.9 kmh NNW 22.0 mph35.4 kmh 30.08 in1018.6 mb 0.00 in0.0 mm 0.00 in/hr0.0 mm/hr 0.00 in0.0 mm
03:25 PM 18.8°F-7.3°C 1.0°F-17.2°C 45% 9.0 mph WSW14.5 kmh WSW 21.0 mph33.8 kmh 30.08 in1018.6 mb 0.00 in0.0 mm 0.00 in/hr0.0 mm/hr 0.00 in0.0 mm
03:30 PM 18.1°F-7.7°C -5537.2°C 44% 7.0 mph WNW11.3 kmh WNW 20.0 mph32.2 kmh 30.08 in1018.6 mb 0.00 in0.0 mm 0.00 in/hr0.0 mm/hr 0.00 in0.0 mm
03:35 PM 17.7°F-7.9°C 0.9°F-17.3°C 47% 20.0 mph WNW32.2 kmh WNW 20.0 mph32.2 kmh 30.08 in1018.6 mb 0.00 in0.0 mm 0.00 in/hr0.0 mm/hr 0.00 in0.0 mm
03:40 PM 17.7°F-7.9°C 0.0°F-17.8°C 45% 8.0 mph NW12.9 kmh NW 23.0 mph37.0 kmh 30.08 in1018.6 mb 0.00 in0.0 mm 0.00 in/hr0.0 mm/hr 0.00 in0.0 mm
03:45 PM 17.5°F-8.1°C -5537.2°C 42% 6.0 mph W9.7 kmh W 28.0 mph45.1 kmh 30.10 in1019.3 mb 0.00 in0.0 mm 0.00 in/hr0.0 mm/hr 0.00 in0.0 mm
03:50 PM 17.2°F-8.2°C 0.0°F-17.8°C 46% 7.0 mph NW11.3 kmh NW 20.0 mph32.2 kmh 30.10 in1019.3 mb 0.00 in0.0 mm 0.00 in/hr0.0 mm/hr 0.00 in0.0 mm
03:55 PM 17.3°F-8.2°C -5537.2°C 45% 5.0 mph NW8.0 kmh NW 18.0 mph29.0 kmh 30.10 in1019.3 mb 0.00 in0.0 mm 0.00 in/hr0.0 mm/hr 0.00 in0.0 mm
04:00 PM 17.2°F-8.2°C -5537.2°C 45% 8.0 mph WNW12.9 kmh WNW 20.0 mph32.2 kmh 30.11 in1019.6 mb 0.00 in0.0 mm 0.00 in/hr0.0 mm/hr 0.00 in0.0 mm
04:05 PM 17.0°F-8.3°C 0.7°F-17.4°C 48% 12.0 mph WNW19.3 kmh WNW 21.0 mph33.8 kmh 30.11 in1019.6 mb 0.00 in0.0 mm 0.00 in/hr0.0 mm/hr 0.00 in0.0 mm
04:10 PM 17.0°F-8.3°C 1.6°F-16.9°C 50% 3.0 mph SE4.8 kmh SE 19.0 mph30.6 kmh 30.11 in1019.6 mb 0.00 in0.0 mm 0.00 in/hr0.0 mm/hr 0.00 in0.0 mm
04:15 PM 17.0°F-8.3°C 2.0°F-16.7°C 51% 1.0 mph S1.6 kmh S 23.0 mph37.0 kmh 30.11 in1019.6 mb 0.00 in0.0 mm 0.00 in/hr0.0 mm/hr 0.00 in0.0 mm
04:20 PM 17.8°F-7.9°C 3.1°F-16.1°C 52% 8.0 mph NE12.9 kmh NE 17.0 mph27.4 kmh 30.11 in1019.6 mb 0.00 in0.0 mm 0.00 in/hr0.0 mm/hr 0.00 in0.0 mm
04:25 PM 18.1°F-7.7°C 4.2°F-15.4°C 54% 7.0 mph NE11.3 kmh NE 16.0 mph25.7 kmh 30.11 in1019.6 mb 0.00 in0.0 mm 0.00 in/hr0.0 mm/hr 0.00 in0.0 mm
04:30 PM 17.8°F-7.9°C 2.7°F-16.3°C 51% 10.0 mph NE16.1 kmh NE 13.0 mph20.9 kmh 30.12 in1020.0 mb 0.00 in0.0 mm 0.00 in/hr0.0 mm/hr 0.00 in0.0 mm
04:35 PM 18.1°F-7.7°C 2.6°F-16.3°C 50% 8.0 mph NE12.9 kmh NE 19.0 mph30.6 kmh 30.12 in1020.0 mb 0.00 in0.0 mm 0.00 in/hr0.0 mm/hr 0.00 in0.0 mm
04:40 PM 18.3°F-7.6°C 1.9°F-16.7°C 48% 2.0 mph N3.2 kmh N 10.0 mph16.1 kmh 30.12 in1020.0 mb 0.00 in0.0 mm 0.00 in/hr0.0 mm/hr 0.00 in0.0 mm
04:45 PM 18.1°F-7.7°C 1.3°F-17.1°C 47% 11.0 mph NNE17.7 kmh NNE 16.0 mph25.7 kmh 30.14 in1020.7 mb 0.00 in0.0 mm 0.00 in/hr0.0 mm/hr 0.00 in0.0 mm
04:50 PM 17.0°F-8.3°C 1.1°F-17.2°C 49% 4.0 mph NW6.4 kmh NW 25.0 mph40.2 kmh 30.14 in1020.7 mb 0.00 in0.0 mm 0.00 in/hr0.0 mm/hr 0.00 in0.0 mm
04:55 PM 16.1°F-8.8°C 0.7°F-17.4°C 50% 5.0 mph NW8.0 kmh NW 15.0 mph24.1 kmh 30.14 in1020.7 mb 0.00 in0.0 mm 0.00 in/hr0.0 mm/hr 0.00 in0.0 mm
05:00 PM 15.2°F-9.3°C 0.3°F-17.6°C 51% 5.0 mph NW8.0 kmh NW 10.0 mph16.1 kmh 30.15 in1021.0 mb 0.00 in0.0 mm 0.00 in/hr0.0 mm/hr 0.00 in0.0 mm
05:05 PM 14.9°F-9.5°C 0.4°F-17.6°C 52% 9.0 mph N14.5 kmh N 9.0 mph14.5 kmh 30.15 in1021.0 mb 0.00 in0.0 mm 0.00 in/hr0.0 mm/hr 0.00 in0.0 mm
05:10 PM 14.6°F-9.7°C 0.2°F-17.7°C 52% 4.0 mph NNE6.4 kmh NNE 17.0 mph27.4 kmh 30.15 in1021.0 mb 0.00 in0.0 mm 0.00 in/hr0.0 mm/hr 0.00 in0.0 mm
05:15 PM 14.4°F-9.8°C 0.0°F-17.8°C 52% 5.0 mph NW8.0 kmh NW 13.0 mph20.9 kmh 30.15 in1021.0 mb 0.00 in0.0 mm 0.00 in/hr0.0 mm/hr 0.00 in0.0 mm
05:20 PM 14.3°F-9.8°C 0.3°F-17.6°C 53% 6.0 mph N9.7 kmh N 26.0 mph41.8 kmh 30.15 in1021.0 mb 0.00 in0.0 mm 0.00 in/hr0.0 mm/hr 0.00 in0.0 mm
05:25 PM 14.3°F-9.8°C 0.3°F-17.6°C 53% 5.0 mph NW8.0 kmh NW 24.0 mph38.6 kmh 30.15 in1021.0 mb 0.00 in0.0 mm 0.00 in/hr0.0 mm/hr 0.00 in0.0 mm
05:30 PM 14.3°F-9.8°C 0.3°F-17.6°C 53% 5.0 mph NW8.0 kmh NW 13.0 mph20.9 kmh 30.17 in1021.7 mb 0.00 in0.0 mm 0.00 in/hr0.0 mm/hr 0.00 in0.0 mm
05:35 PM 14.1°F-9.9°C 0.5°F-17.5°C 54% 12.0 mph NE19.3 kmh NE 17.0 mph27.4 kmh 30.17 in1021.7 mb 0.00 in0.0 mm 0.00 in/hr0.0 mm/hr 0.00 in0.0 mm
05:40 PM 14.0°F-10.0°C 0.8°F-17.3°C 55% 6.0 mph NE9.7 kmh NE 16.0 mph25.7 kmh 30.17 in1021.7 mb 0.00 in0.0 mm 0.00 in/hr0.0 mm/hr 0.00 in0.0 mm
05:45 PM 13.8°F-10.1°C 0.6°F-17.4°C 55% 2.0 mph N3.2 kmh N 12.0 mph19.3 kmh 30.18 in1022.0 mb 0.00 in0.0 mm 0.00 in/hr0.0 mm/hr 0.00 in0.0 mm
05:50 PM 13.8°F-10.1°C 1.0°F-17.2°C 56% 6.0 mph NNE9.7 kmh NNE 14.0 mph22.5 kmh 30.18 in1022.0 mb 0.00 in0.0 mm 0.00 in/hr0.0 mm/hr 0.00 in0.0 mm
05:55 PM 13.8°F-10.1°C 0.6°F-17.4°C 55% 9.0 mph 14.5 kmh 13.0 mph20.9 kmh 30.18 in1022.0 mb 0.00 in0.0 mm 0.00 in/hr0.0 mm/hr 0.00 in0.0 mm
06:00 PM 13.8°F-10.1°C 0.6°F-17.4°C 55% Calm Calm 13.0 mph20.9 kmh 30.19 in1022.4 mb 0.00 in0.0 mm 0.00 in/hr0.0 mm/hr 0.00 in0.0 mm
06:05 PM 13.8°F-10.1°C 1.0°F-17.2°C 56% 2.0 mph NE3.2 kmh NE 9.0 mph14.5 kmh 30.19 in1022.4 mb 0.00 in0.0 mm 0.00 in/hr0.0 mm/hr 0.00 in0.0 mm
06:10 PM 13.6°F-10.2°C 0.4°F-17.6°C 55% 4.0 mph NW6.4 kmh NW 13.0 mph20.9 kmh 30.19 in1022.4 mb 0.00 in0.0 mm 0.00 in/hr0.0 mm/hr 0.00 in0.0 mm
06:15 PM 13.6°F-10.2°C 0.4°F-17.6°C 55% 8.0 mph NNW12.9 kmh NNW 16.0 mph25.7 kmh 30.19 in1022.4 mb 0.00 in0.0 mm 0.00 in/hr0.0 mm/hr 0.00 in0.0 mm
06:20 PM 13.6°F-10.2°C 0.4°F-17.6°C 55% 9.0 mph NNE14.5 kmh NNE 12.0 mph19.3 kmh 30.19 in1022.4 mb 0.00 in0.0 mm 0.00 in/hr0.0 mm/hr 0.00 in0.0 mm
06:25 PM 13.8°F-10.1°C 0.2°F-17.7°C 54% 7.0 mph NE11.3 kmh NE 18.0 mph29.0 kmh 30.19 in1022.4 mb 0.00 in0.0 mm 0.00 in/hr0.0 mm/hr 0.00 in0.0 mm
06:31 PM 13.8°F-10.1°C -5537.2°C 53% 2.0 mph NW3.2 kmh NW 11.0 mph17.7 kmh 30.20 in1022.7 mb 0.00 in0.0 mm 0.00 in/hr0.0 mm/hr 0.00 in0.0 mm
06:35 PM 13.8°F-10.1°C -5537.2°C 53% 1.0 mph N1.6 kmh N 13.0 mph20.9 kmh 30.20 in1022.7 mb 0.00 in0.0 mm 0.00 in/hr0.0 mm/hr 0.00 in0.0 mm
06:40 PM 13.6°F-10.2°C -5537.2°C 53% 1.0 mph NW1.6 kmh NW 14.0 mph22.5 kmh 30.20 in1022.7 mb 0.00 in0.0 mm 0.00 in/hr0.0 mm/hr 0.00 in0.0 mm
06:45 PM 13.6°F-10.2°C -5537.2°C 53% 6.0 mph N9.7 kmh N 11.0 mph17.7 kmh 30.21 in1023.0 mb 0.00 in0.0 mm 0.00 in/hr0.0 mm/hr 0.00 in0.0 mm
06:50 PM 13.6°F-10.2°C -5537.2°C 53% 3.0 mph N4.8 kmh N 9.0 mph14.5 kmh 30.21 in1023.0 mb 0.00 in0.0 mm 0.00 in/hr0.0 mm/hr 0.00 in0.0 mm
06:55 PM 13.5°F-10.3°C -5537.2°C 54% 2.0 mph NNE3.2 kmh NNE 10.0 mph16.1 kmh 30.21 in1023.0 mb 0.00 in0.0 mm 0.00 in/hr0.0 mm/hr 0.00 in0.0 mm
07:00 PM 13.5°F-10.3°C -5537.2°C 54% Calm Calm 2.0 mph3.2 kmh 30.22 in1023.4 mb 0.00 in0.0 mm 0.00 in/hr0.0 mm/hr 0.00 in0.0 mm
07:05 PM 13.3°F-10.4°C -1.0°F-18.3°C 52% 7.0 mph NNE11.3 kmh NNE 12.0 mph19.3 kmh 30.22 in1023.4 mb 0.00 in0.0 mm 0.00 in/hr0.0 mm/hr 0.00 in0.0 mm
07:10 PM 13.6°F-10.2°C -5537.2°C 50% 1.0 mph 1.6 kmh 10.0 mph16.1 kmh 30.22 in1023.4 mb 0.00 in0.0 mm 0.00 in/hr0.0 mm/hr 0.00 in0.0 mm
07:15 PM 13.8°F-10.1°C -5537.2°C 48% 5.0 mph W8.0 kmh W 7.0 mph11.3 kmh 30.22 in1023.4 mb 0.00 in0.0 mm 0.00 in/hr0.0 mm/hr 0.00 in0.0 mm
07:20 PM 14.0°F-10.0°C -5537.2°C 47% 7.0 mph SW11.3 kmh SW 18.0 mph29.0 kmh 30.22 in1023.4 mb 0.00 in0.0 mm 0.00 in/hr0.0 mm/hr 0.00 in0.0 mm
07:25 PM 14.3°F-9.8°C -5537.2°C 45% 7.0 mph SE11.3 kmh SE 15.0 mph24.1 kmh 30.22 in1023.4 mb 0.00 in0.0 mm 0.00 in/hr0.0 mm/hr 0.00 in0.0 mm
07:30 PM 14.3°F-9.8°C -5537.2°C 48% 2.0 mph W3.2 kmh W 9.0 mph14.5 kmh 30.22 in1023.4 mb 0.00 in0.0 mm 0.00 in/hr0.0 mm/hr 0.00 in0.0 mm
07:35 PM 14.0°F-10.0°C -5537.2°C 49% 2.0 mph ENE3.2 kmh ENE 8.0 mph12.9 kmh 30.22 in1023.4 mb 0.00 in0.0 mm 0.00 in/hr0.0 mm/hr 0.00 in0.0 mm
07:40 PM 13.6°F-10.2°C -5537.2°C 50% 4.0 mph NE6.4 kmh NE 9.0 mph14.5 kmh 30.22 in1023.4 mb 0.00 in0.0 mm 0.00 in/hr0.0 mm/hr 0.00 in0.0 mm
07:45 PM 13.3°F-10.4°C -1.0°F-18.3°C 52% 1.0 mph ENE1.6 kmh ENE 12.0 mph19.3 kmh 30.22 in1023.4 mb 0.00 in0.0 mm 0.00 in/hr0.0 mm/hr 0.00 in0.0 mm
07:50 PM 12.9°F-10.6°C -5537.2°C 52% 3.0 mph E4.8 kmh E 8.0 mph12.9 kmh 30.22 in1023.4 mb 0.00 in0.0 mm 0.00 in/hr0.0 mm/hr 0.00 in0.0 mm
07:55 PM 12.4°F-10.9°C -5537.2°C 53% 3.0 mph E4.8 kmh E 8.0 mph12.9 kmh 30.22 in1023.4 mb 0.00 in0.0 mm 0.00 in/hr0.0 mm/hr 0.00 in0.0 mm
08:00 PM 12.1°F-11.1°C -1.0°F-18.3°C 55% 2.0 mph E3.2 kmh E 8.0 mph12.9 kmh 30.24 in1024.0 mb 0.00 in0.0 mm 0.00 in/hr0.0 mm/hr 0.00 in0.0 mm
08:05 PM 11.9°F-11.2°C -5537.2°C 55% 7.0 mph E11.3 kmh E 10.0 mph16.1 kmh 30.24 in1024.0 mb 0.00 in0.0 mm 0.00 in/hr0.0 mm/hr 0.00 in0.0 mm
08:10 PM 11.7°F-11.3°C -5537.2°C 55% 7.0 mph ENE11.3 kmh ENE 10.0 mph16.1 kmh 30.24 in1024.0 mb 0.00 in0.0 mm 0.00 in/hr0.0 mm/hr 0.00 in0.0 mm
08:15 PM 11.7°F-11.3°C -5537.2°C 55% Calm Calm 10.0 mph16.1 kmh 30.24 in1024.0 mb 0.00 in0.0 mm 0.00 in/hr0.0 mm/hr 0.00 in0.0 mm
08:20 PM 11.7°F-11.3°C -5537.2°C 54% 3.0 mph ESE4.8 kmh ESE 6.0 mph9.7 kmh 30.24 in1024.0 mb 0.00 in0.0 mm 0.00 in/hr0.0 mm/hr 0.00 in0.0 mm
08:25 PM 11.6°F-11.3°C -3.0°F-19.4°C 51% 2.0 mph E3.2 kmh E 4.0 mph6.4 kmh 30.24 in1024.0 mb 0.00 in0.0 mm 0.00 in/hr0.0 mm/hr 0.00 in0.0 mm
08:30 PM 11.6°F-11.3°C -5537.2°C 52% 4.0 mph ESE6.4 kmh ESE 4.0 mph6.4 kmh 30.27 in1025.1 mb 0.00 in0.0 mm 0.00 in/hr0.0 mm/hr 0.00 in0.0 mm
08:35 PM 11.6°F-11.3°C -3.0°F-19.4°C 51% 3.0 mph ESE4.8 kmh ESE 6.0 mph9.7 kmh 30.27 in1025.1 mb 0.00 in0.0 mm 0.00 in/hr0.0 mm/hr 0.00 in0.0 mm
08:40 PM 11.9°F-11.2°C -5537.2°C 50% 3.0 mph SE4.8 kmh SE 14.0 mph22.5 kmh 30.27 in1025.1 mb 0.00 in0.0 mm 0.00 in/hr0.0 mm/hr 0.00 in0.0 mm
08:45 PM 12.9°F-10.6°C -5537.2°C 40% 3.0 mph WNW4.8 kmh WNW 9.0 mph14.5 kmh 30.26 in1024.7 mb 0.00 in0.0 mm 0.00 in/hr0.0 mm/hr 0.00 in0.0 mm
08:50 PM 12.8°F-10.7°C -5537.2°C 45% Calm Calm 8.0 mph12.9 kmh 30.26 in1024.7 mb 0.00 in0.0 mm 0.00 in/hr0.0 mm/hr 0.00 in0.0 mm
08:55 PM 12.3°F-10.9°C -5.0°F-20.6°C 45% 5.0 mph E8.0 kmh E 6.0 mph9.7 kmh 30.26 in1024.7 mb 0.00 in0.0 mm 0.00 in/hr0.0 mm/hr 0.00 in0.0 mm
09:00 PM 12.1°F-11.1°C -5537.2°C 48% 2.0 mph NE3.2 kmh NE 7.0 mph11.3 kmh 30.25 in1024.4 mb 0.00 in0.0 mm 0.00 in/hr0.0 mm/hr 0.00 in0.0 mm
09:05 PM 11.9°F-11.2°C -5537.2°C 47% 1.0 mph N1.6 kmh N 6.0 mph9.7 kmh 30.25 in1024.4 mb 0.00 in0.0 mm 0.00 in/hr0.0 mm/hr 0.00 in0.0 mm
09:10 PM 11.6°F-11.3°C -5537.2°C 47% Calm Calm 6.0 mph9.7 kmh 30.25 in1024.4 mb 0.00 in0.0 mm 0.00 in/hr0.0 mm/hr 0.00 in0.0 mm
09:15 PM 11.4°F-11.4°C -5537.2°C 47% 2.0 mph E3.2 kmh E 2.0 mph3.2 kmh 30.26 in1024.7 mb 0.00 in0.0 mm 0.00 in/hr0.0 mm/hr 0.00 in0.0 mm
09:25 PM 11.6°F-11.3°C -5537.2°C 48% 3.0 mph S4.8 kmh S 7.0 mph11.3 kmh 30.26 in1024.7 mb 0.00 in0.0 mm 0.00 in/hr0.0 mm/hr 0.00 in0.0 mm
09:35 PM 11.6°F-11.3°C -5537.2°C 49% 3.0 mph SSW4.8 kmh SSW 6.0 mph9.7 kmh 30.26 in1024.7 mb 0.00 in0.0 mm 0.00 in/hr0.0 mm/hr 0.00 in0.0 mm
09:40 PM 11.7°F-11.3°C -5537.2°C 49% 2.0 mph SSW3.2 kmh SSW 5.0 mph8.0 kmh 30.26 in1024.7 mb 0.00 in0.0 mm 0.00 in/hr0.0 mm/hr 0.00 in0.0 mm
09:45 PM 11.4°F-11.4°C -5537.2°C 50% 5.0 mph SSW8.0 kmh SSW 6.0 mph9.7 kmh 30.26 in1024.7 mb 0.00 in0.0 mm 0.00 in/hr0.0 mm/hr 0.00 in0.0 mm
09:50 PM 11.4°F-11.4°C -5537.2°C 47% Calm Calm 5.0 mph8.0 kmh 30.26 in1024.7 mb 0.00 in0.0 mm 0.00 in/hr0.0 mm/hr 0.00 in0.0 mm
09:55 PM 11.4°F-11.4°C -5537.2°C 48% 4.0 mph SSW6.4 kmh SSW 8.0 mph12.9 kmh 30.26 in1024.7 mb 0.00 in0.0 mm 0.00 in/hr0.0 mm/hr 0.00 in0.0 mm
10:00 PM 11.2°F-11.6°C -5537.2°C 48% 2.0 mph NNW3.2 kmh NNW 6.0 mph9.7 kmh 30.27 in1025.1 mb 0.00 in0.0 mm 0.00 in/hr0.0 mm/hr 0.00 in0.0 mm
10:05 PM 10.7°F-11.8°C -5537.2°C 49% 2.0 mph NNW3.2 kmh NNW 3.0 mph4.8 kmh 30.27 in1025.1 mb 0.00 in0.0 mm 0.00 in/hr0.0 mm/hr 0.00 in0.0 mm
10:10 PM 10.4°F-12.0°C -5.0°F-20.6°C 49% Calm Calm 5.0 mph8.0 kmh 30.27 in1025.1 mb 0.00 in0.0 mm 0.00 in/hr0.0 mm/hr 0.00 in0.0 mm
10:15 PM 10.2°F-12.1°C -6.0°F-21.1°C 47% Calm Calm 7.0 mph11.3 kmh 30.26 in1024.7 mb 0.00 in0.0 mm 0.00 in/hr0.0 mm/hr 0.00 in0.0 mm
10:20 PM 10.7°F-11.8°C -5537.2°C 44% 3.0 mph NW4.8 kmh NW 11.0 mph17.7 kmh 30.26 in1024.7 mb 0.00 in0.0 mm 0.00 in/hr0.0 mm/hr 0.00 in0.0 mm
10:25 PM 11.9°F-11.2°C -5537.2°C 41% 3.0 mph NNW4.8 kmh NNW 13.0 mph20.9 kmh 30.26 in1024.7 mb 0.00 in0.0 mm 0.00 in/hr0.0 mm/hr 0.00 in0.0 mm
10:35 PM 12.1°F-11.1°C -5537.2°C 40% Calm Calm 12.0 mph19.3 kmh 30.26 in1024.7 mb 0.00 in0.0 mm 0.00 in/hr0.0 mm/hr 0.00 in0.0 mm
10:40 PM 12.1°F-11.1°C -5537.2°C 40% 3.0 mph SE4.8 kmh SE 7.0 mph11.3 kmh 30.26 in1024.7 mb 0.00 in0.0 mm 0.00 in/hr0.0 mm/hr 0.00 in0.0 mm
10:45 PM 12.4°F-10.9°C -5537.2°C 37% 7.0 mph S11.3 kmh S 11.0 mph17.7 kmh 30.26 in1024.7 mb 0.00 in0.0 mm 0.00 in/hr0.0 mm/hr 0.00 in0.0 mm
10:50 PM 12.3°F-10.9°C -5537.2°C 39% 4.0 mph S6.4 kmh S 10.0 mph16.1 kmh 30.26 in1024.7 mb 0.00 in0.0 mm 0.00 in/hr0.0 mm/hr 0.00 in0.0 mm
10:55 PM 11.7°F-11.3°C -8.0°F-22.2°C 40% 4.0 mph S6.4 kmh S 12.0 mph19.3 kmh 30.26 in1024.7 mb 0.00 in0.0 mm 0.00 in/hr0.0 mm/hr 0.00 in0.0 mm
11:00 PM 11.9°F-11.2°C -5537.2°C 38% Calm Calm 6.0 mph9.7 kmh 30.26 in1024.7 mb 0.00 in0.0 mm 0.00 in/hr0.0 mm/hr 0.00 in0.0 mm
11:05 PM 12.1°F-11.1°C -5537.2°C 38% 8.0 mph SSW12.9 kmh SSW 15.0 mph24.1 kmh 30.26 in1024.7 mb 0.00 in0.0 mm 0.00 in/hr0.0 mm/hr 0.00 in0.0 mm
11:10 PM 12.3°F-10.9°C -5537.2°C 38% 4.0 mph ENE6.4 kmh ENE 9.0 mph14.5 kmh 30.26 in1024.7 mb 0.00 in0.0 mm 0.00 in/hr0.0 mm/hr 0.00 in0.0 mm
11:15 PM 12.1°F-11.1°C -5537.2°C 39% 4.0 mph ESE6.4 kmh ESE 10.0 mph16.1 kmh 30.27 in1025.1 mb 0.00 in0.0 mm 0.00 in/hr0.0 mm/hr 0.00 in0.0 mm
11:20 PM 11.6°F-11.3°C -5537.2°C 42% 5.0 mph ESE8.0 kmh ESE 8.0 mph12.9 kmh 30.27 in1025.1 mb 0.00 in0.0 mm 0.00 in/hr0.0 mm/hr 0.00 in0.0 mm
11:25 PM 10.5°F-11.9°C -5537.2°C 43% 3.0 mph N4.8 kmh N 10.0 mph16.1 kmh 30.27 in1025.1 mb 0.00 in0.0 mm 0.00 in/hr0.0 mm/hr 0.00 in0.0 mm
11:30 PM 10.9°F-11.7°C -5537.2°C 41% Calm Calm 9.0 mph14.5 kmh 30.27 in1025.1 mb 0.00 in0.0 mm 0.00 in/hr0.0 mm/hr 0.00 in0.0 mm
11:35 PM 11.2°F-11.6°C -5537.2°C 40% 3.0 mph W4.8 kmh W 11.0 mph17.7 kmh 30.27 in1025.1 mb 0.00 in0.0 mm 0.00 in/hr0.0 mm/hr 0.00 in0.0 mm
11:40 PM 11.1°F-11.6°C -8.0°F-22.2°C 41% 8.0 mph WSW12.9 kmh WSW 10.0 mph16.1 kmh 30.27 in1025.1 mb 0.00 in0.0 mm 0.00 in/hr0.0 mm/hr 0.00 in0.0 mm
11:45 PM 11.2°F-11.6°C -5537.2°C 39% 5.0 mph NW8.0 kmh NW 25.0 mph40.2 kmh 30.27 in1025.1 mb 0.00 in0.0 mm 0.00 in/hr0.0 mm/hr 0.00 in0.0 mm
11:50 PM 11.6°F-11.3°C -5537.2°C 36% 6.0 mph SW9.7 kmh SW 14.0 mph22.5 kmh 30.27 in1025.1 mb 0.00 in0.0 mm 0.00 in/hr0.0 mm/hr 0.00 in0.0 mm
11:55 PM 11.9°F-11.2°C -5537.2°C 34% 4.0 mph WNW6.4 kmh WNW 24.0 mph38.6 kmh 30.27 in1025.1 mb 0.00 in0.0 mm 0.00 in/hr0.0 mm/hr 0.00 in0.0 mm